Airfield :
LOGIN :

Register | Disclaimer

   EN    FR    IT 

 










Legend :    VFR   Marginal VFR   IFR   Intensive IFR   Very Intensive IFR
Visi :
Ceiling :
>= 8 km
>= 3000ft
5 to 8 km
1000 to 3000 ft
1500m to 5 km
500 to 1000 ft
800 to 1500m
200 to 500 ft
< 800m
< 200 ft
Symbols :   Thunderstorms  Fog  Heavy snow  Heavy precipitations  Wind > 20 kt
SIGMETs :     Misc.  Thunderstorms  Icing  Turbulence  Mountain Waves  Volcanic Ashes






- Airport Elevation : 1416 ft
- IATA code : ZRH


LSZH - Zurich

CURRENT METAR :
  • 260050Z 30005KT CAVOK 08/06 Q1032 NOSIG

EXPIRED METARs :
  • 252350Z VRB01KT CAVOK 08/06 Q1033 NOSIG
  • 252320Z 34003KT CAVOK 08/06 Q1033 NOSIG
  • 252250Z VRB01KT CAVOK 10/07 Q1033 NOSIG
  • 252220Z VRB02KT CAVOK 10/07 Q1033 NOSIG

TAF TAF LSZH
Valid from the 26 at 00:00 until the 27 at 06:00 UTC


252325Z 2600/2706 VRB03KT CAVOK TX21/2615Z TN07/2604Z TN07/2704Z
BECMG 2607/2610 04010KT
TEMPO 2610/2617 9999 FEW060
BECMG 2620/2623 VRB03KT
ATIS : +41 43 816 2295 (DEP) +41 43 816 2294 (ARR)



MET'MAP, your aeronautical weather chart ! - Copyright ORBIFLY December 2007 - Disclaimer

ORBIFLY MET'MAP TEAM :

Programming & Development : Alexandra Zaïnal
Concept & original design : Baudouin d'Aumeries
Assistance for programming : Marc-Olivier Méhu
Technical & hardware support : Manuel Goepfert

Contact : metmap@orbifly.com




SOURCES & CREDITS :

   NOAA